Time;durP1;ratioP1;P1;durP2;ratioP2;P2;SDS_P1;SDS_P2;PMS_P1;PMS_P2;Temp;Humidity;BMP_temperature;BMP_pressure;BME280_temperature;BME280_humidity;BME280_pressure;Samples;Min_cycle;Max_cycle;Signal;HPM_P1;HPM_P2
2023/03/26 00:02:04;;;;;;;14.50;3.60;;;7.70;99.90;;;;;;4923396;29;20247;-57
2023/03/26 00:04:33;;;;;;;12.43;2.97;;;7.70;99.90;;;;;;4923996;29;20629;-56
2023/03/26 00:07:01;;;;;;;15.87;3.87;;;7.70;99.90;;;;;;4916510;29;20752;-56
2023/03/26 00:09:30;;;;;;;16.63;3.40;;;7.70;99.90;;;;;;4917020;29;20233;-56
2023/03/26 00:11:58;;;;;;;10.50;2.90;;;7.70;99.90;;;;;;4935171;29;20276;-56
2023/03/26 00:14:28;;;;;;;10.27;2.97;;;7.80;99.90;;;;;;4935255;29;20306;-56
2023/03/26 00:16:56;;;;;;;14.83;2.70;;;7.80;99.90;;;;;;4935145;29;20260;-56
2023/03/26 00:19:26;;;;;;;10.47;2.80;;;7.80;99.90;;;;;;4928554;29;20237;-56
2023/03/26 00:21:56;;;;;;;9.00;2.60;;;7.70;99.90;;;;;;4920065;29;20243;-56
2023/03/26 00:24:28;;;;;;;6.10;2.70;;;7.70;99.90;;;;;;4916067;29;20225;-57
2023/03/26 00:26:56;;;;;;;8.90;2.50;;;7.70;99.90;;;;;;4916011;29;20237;-56
2023/03/26 00:29:26;;;;;;;8.03;2.43;;;7.70;99.90;;;;;;4921320;29;20238;-55
2023/03/26 00:31:56;;;;;;;6.27;2.37;;;7.60;99.90;;;;;;4929093;29;20318;-56
2023/03/26 00:34:25;;;;;;;7.60;2.30;;;7.60;99.90;;;;;;4923720;29;20646;-56
2023/03/26 00:36:53;;;;;;;10.47;2.40;;;7.60;99.90;;;;;;4916072;29;20688;-56
2023/03/26 00:39:22;;;;;;;11.97;2.53;;;7.50;99.90;;;;;;4918508;29;20228;-56
2023/03/26 00:41:53;;;;;;;4.60;2.00;;;7.50;99.90;;;;;;4919727;29;20229;-57
2023/03/26 00:44:22;;;;;;;8.10;2.50;;;7.50;99.90;;;;;;4919450;29;20250;-57
2023/03/26 00:46:50;;;;;;;8.07;2.13;;;7.50;99.90;;;;;;4933908;29;20238;-57
2023/03/26 00:49:19;;;;;;;7.80;2.23;;;7.50;99.90;;;;;;4927039;29;20229;-56
2023/03/26 00:51:47;;;;;;;9.00;2.10;;;7.50;99.90;;;;;;4936118;29;20228;-56
2023/03/26 00:54:16;;;;;;;9.13;2.53;;;7.50;99.90;;;;;;4921645;29;20236;-56
2023/03/26 00:56:44;;;;;;;9.80;2.40;;;7.40;99.90;;;;;;4919084;29;20612;-56
2023/03/26 00:59:12;;;;;;;11.77;2.63;;;7.40;99.90;;;;;;4917891;29;20252;-56
2023/03/26 01:01:40;;;;;;;9.40;2.43;;;7.40;99.90;;;;;;4931823;29;20247;-57
2023/03/26 01:04:29;;;;;;;14.00;3.03;;;7.40;99.90;;;;;;4931818;29;20260;-56
2023/03/26 01:07:01;;;;;;;9.17;2.60;;;7.40;99.90;;;;;;4935035;29;20245;-56
2023/03/26 01:09:34;;;;;;;14.57;3.13;;;7.40;99.90;;;;;;4919209;29;20768;-56
2023/03/26 01:12:05;;;;;;;11.53;3.13;;;7.50;99.90;;;;;;4930092;29;20307;-57
2023/03/26 01:14:33;;;;;;;16.90;2.90;;;7.50;99.90;;;;;;4937698;29;20743;-56
2023/03/26 01:17:04;;;;;;;12.57;3.03;;;7.50;99.90;;;;;;4934428;29;20711;-56
2023/03/26 01:19:39;;;;;;;14.17;2.97;;;7.50;99.90;;;;;;4931360;29;20307;-56
2023/03/26 01:22:10;;;;;;;15.27;3.23;;;7.50;99.90;;;;;;4918967;29;20711;-56
2023/03/26 01:24:41;;;;;;;12.47;3.73;;;7.40;99.90;;;;;;4933136;29;20236;-56
2023/03/26 01:27:24;;;;;;;11.87;2.83;;;7.40;99.90;;;;;;4918665;29;20287;-57
2023/03/26 01:29:55;;;;;;;13.97;2.80;;;7.40;99.90;;;;;;4927611;29;20243;-56
2023/03/26 01:32:34;;;;;;;12.37;2.67;;;7.40;99.90;;;;;;4933959;29;20598;-56
2023/03/26 01:35:14;;;;;;;9.23;2.63;;;7.40;99.90;;;;;;4929572;29;20722;-57
2023/03/26 01:37:51;;;;;;;11.80;2.80;;;7.30;99.90;;;;;;4937223;29;20238;-57
2023/03/26 01:40:25;;;;;;;11.87;3.00;;;7.30;99.90;;;;;;4935666;29;20234;-57
2023/03/26 01:43:00;;;;;;;11.93;2.33;;;7.40;99.90;;;;;;4929401;29;20238;-56
2023/03/26 01:45:32;;;;;;;11.07;2.50;;;7.30;99.90;;;;;;4937213;29;20282;-56
2023/03/26 01:48:01;;;;;;;14.07;2.93;;;7.30;99.90;;;;;;4935142;29;20220;-56
2023/03/26 01:50:30;;;;;;;10.77;2.03;;;7.30;99.90;;;;;;4925706;29;20264;-56
2023/03/26 01:52:58;;;;;;;11.80;2.40;;;7.30;99.90;;;;;;4916898;29;20228;-57
2023/03/26 01:55:34;;;;;;;7.40;1.40;;;7.30;99.90;;;;;;4918021;29;20764;-55
2023/03/26 01:58:10;;;;;;;9.67;1.93;;;7.20;99.90;;;;;;4916806;29;20255;-57
2023/03/26 02:00:45;;;;;;;8.47;1.60;;;7.20;99.90;;;;;;4924037;29;20587;-56
2023/03/26 02:03:22;;;;;;;7.17;1.60;;;7.20;99.90;;;;;;4928704;29;20443;-56
2023/03/26 02:05:55;;;;;;;6.37;1.30;;;7.10;99.90;;;;;;4919452;29;20307;-56
2023/03/26 02:08:34;;;;;;;6.70;1.57;;;7.10;99.90;;;;;;4919080;29;20240;-56
2023/03/26 02:11:09;;;;;;;10.50;1.60;;;7.10;99.90;;;;;;4916578;29;20739;-55
2023/03/26 02:13:39;;;;;;;8.30;1.63;;;7.10;99.90;;;;;;4932284;29;20323;-56
2023/03/26 02:16:12;;;;;;;5.37;1.50;;;7.10;99.90;;;;;;4917986;29;20596;-56
2023/03/26 02:18:41;;;;;;;8.03;1.60;;;7.10;99.90;;;;;;4925408;29;20228;-56
2023/03/26 02:21:12;;;;;;;6.50;1.33;;;7.00;99.90;;;;;;4929595;29;20228;-56
2023/03/26 02:23:45;;;;;;;4.60;1.47;;;7.00;99.90;;;;;;4935299;29;20357;-56
2023/03/26 02:26:18;;;;;;;6.83;1.53;;;7.00;99.90;;;;;;4935366;29;20255;-57
2023/03/26 02:28:57;;;;;;;10.63;1.70;;;7.00;99.90;;;;;;4935184;29;20292;-57
2023/03/26 02:31:28;;;;;;;6.83;1.53;;;7.00;99.90;;;;;;4932650;29;20723;-56
2023/03/26 02:33:57;;;;;;;8.00;1.77;;;7.00;99.90;;;;;;4948483;29;20261;-56
2023/03/26 02:36:27;;;;;;;7.63;1.50;;;6.90;99.90;;;;;;4916018;29;20233;-56
2023/03/26 02:38:59;;;;;;;9.63;2.10;;;6.90;99.90;;;;;;4917386;29;20220;-56
2023/03/26 02:41:32;;;;;;;6.33;1.40;;;6.90;99.90;;;;;;4915932;29;20620;-56
2023/03/26 02:44:04;;;;;;;6.80;1.30;;;6.90;99.90;;;;;;4915991;29;20311;-56
2023/03/26 02:46:50;;;;;;;9.53;1.70;;;6.90;99.90;;;;;;4919967;29;20247;-56
2023/03/26 02:49:43;;;;;;;9.37;1.93;;;6.80;99.90;;;;;;4922591;29;20702;-56
2023/03/26 02:52:17;;;;;;;7.83;1.87;;;6.80;99.90;;;;;;4915919;29;20700;-56
2023/03/26 02:54:47;;;;;;;7.90;2.13;;;6.80;99.90;;;;;;4915849;29;20613;-56
2023/03/26 02:57:24;;;;;;;10.10;1.70;;;6.80;99.90;;;;;;4931571;29;20267;-56
2023/03/26 03:00:21;;;;;;;7.00;1.70;;;6.80;99.90;;;;;;4926773;28;20639;-56
2023/03/26 03:03:12;;;;;;;7.60;1.80;;;6.80;99.90;;;;;;4924990;29;20236;-57
2023/03/26 03:05:59;;;;;;;8.60;1.77;;;6.80;99.90;;;;;;4932957;29;20357;-57
2023/03/26 03:08:41;;;;;;;8.40;1.83;;;6.80;99.90;;;;;;4921822;29;20329;-56
2023/03/26 03:11:27;;;;;;;10.60;2.00;;;6.70;99.90;;;;;;4931198;29;20315;-56
2023/03/26 03:13:57;;;;;;;6.37;1.73;;;6.70;99.90;;;;;;4931442;29;20323;-56
2023/03/26 03:16:27;;;;;;;7.43;1.90;;;6.70;99.90;;;;;;4931236;29;20256;-57
2023/03/26 03:18:57;;;;;;;9.80;2.50;;;6.70;99.90;;;;;;4931720;29;20260;-57
2023/03/26 03:21:34;;;;;;;7.77;1.60;;;6.60;99.90;;;;;;4930294;29;20223;-57
2023/03/26 03:24:03;;;;;;;9.53;2.37;;;6.60;99.90;;;;;;4950366;29;20688;-56
2023/03/26 03:26:36;;;;;;;11.10;2.23;;;6.60;99.90;;;;;;4934213;29;20327;-57
2023/03/26 03:29:17;;;;;;;7.53;2.03;;;6.60;99.90;;;;;;4930067;29;20331;-56
2023/03/26 03:31:45;;;;;;;12.50;2.40;;;6.60;99.90;;;;;;4927969;29;20247;-56
2023/03/26 03:34:28;;;;;;;10.30;2.30;;;6.60;99.90;;;;;;4927247;29;20236;-57
2023/03/26 03:36:56;;;;;;;12.00;2.10;;;6.60;99.90;;;;;;4931139;29;20268;-56
2023/03/26 03:39:42;;;;;;;13.90;2.27;;;6.60;99.90;;;;;;4926906;29;20224;-57
2023/03/26 03:42:11;;;;;;;14.33;2.50;;;6.60;99.90;;;;;;4934246;29;20275;-57
2023/03/26 03:44:41;;;;;;;9.77;2.33;;;6.60;99.90;;;;;;4934115;29;20232;-56
2023/03/26 03:47:21;;;;;;;12.87;2.70;;;6.60;99.90;;;;;;4934196;29;20778;-56
2023/03/26 03:49:50;;;;;;;11.60;2.10;;;6.50;99.90;;;;;;4926246;29;20617;-57
2023/03/26 03:52:18;;;;;;;10.23;2.47;;;6.50;99.90;;;;;;4934013;29;20244;-57
2023/03/26 03:54:46;;;;;;;11.57;1.90;;;6.50;99.90;;;;;;4935248;29;20242;-56
2023/03/26 03:57:34;;;;;;;9.03;2.37;;;6.50;99.90;;;;;;4934744;29;20240;-57
2023/03/26 04:00:10;;;;;;;9.17;1.77;;;6.40;99.90;;;;;;4926820;29;20266;-57
2023/03/26 04:02:53;;;;;;;9.40;2.07;;;6.40;99.90;;;;;;4917656;29;20244;-56
2023/03/26 04:05:22;;;;;;;8.30;1.47;;;6.40;99.90;;;;;;4921624;29;20283;-56
2023/03/26 04:07:51;;;;;;;8.63;1.90;;;6.50;99.90;;;;;;4925176;29;20296;-57
2023/03/26 04:10:28;;;;;;;9.20;2.40;;;6.50;99.90;;;;;;4935280;29;20235;-56
2023/03/26 04:13:25;;;;;;;9.57;1.90;;;6.50;99.90;;;;;;4936231;29;20661;-57
2023/03/26 04:16:08;;;;;;;6.53;2.03;;;6.60;99.90;;;;;;4937679;29;20259;-57
2023/03/26 04:18:37;;;;;;;7.67;1.90;;;6.50;99.90;;;;;;4937419;29;20243;-57
2023/03/26 04:21:14;;;;;;;11.23;2.47;;;6.50;99.90;;;;;;4930985;29;20258;-57
2023/03/26 04:23:44;;;;;;;8.97;2.00;;;6.50;99.90;;;;;;4937454;29;20235;-56
2023/03/26 04:26:35;;;;;;;10.30;2.30;;;6.40;99.90;;;;;;4930754;29;20635;-57
2023/03/26 04:29:11;;;;;;;11.17;2.53;;;6.40;99.90;;;;;;4934204;29;20232;-56
2023/03/26 04:31:41;;;;;;;11.37;2.40;;;6.40;99.90;;;;;;4925327;29;20292;-57
2023/03/26 04:34:22;;;;;;;10.63;2.03;;;6.30;99.90;;;;;;4926265;29;20404;-56
2023/03/26 04:37:06;;;;;;;8.03;1.90;;;6.30;99.90;;;;;;4922372;29;20236;-57
2023/03/26 04:39:43;;;;;;;9.80;1.60;;;6.20;99.90;;;;;;4937289;29;20734;-56
2023/03/26 04:42:24;;;;;;;8.13;1.80;;;6.20;99.90;;;;;;4938827;29;20251;-57
2023/03/26 04:45:05;;;;;;;6.07;1.70;;;6.10;99.90;;;;;;4937125;29;20239;-56
2023/03/26 04:47:37;;;;;;;7.00;1.70;;;6.00;99.90;;;;;;4935462;29;20323;-56
2023/03/26 04:50:08;;;;;;;10.17;1.80;;;5.90;99.90;;;;;;4926617;29;20636;-57
2023/03/26 04:52:38;;;;;;;6.73;1.40;;;5.80;99.90;;;;;;4933686;29;20729;-57
2023/03/26 04:55:50;;;;;;;6.03;1.67;;;5.90;99.90;;;;;;4919018;29;20232;-56
2023/03/26 04:58:34;;;;;;;7.80;1.80;;;5.90;99.90;;;;;;4917817;29;20232;-57
2023/03/26 05:01:04;;;;;;;5.83;1.47;;;5.90;99.90;;;;;;4925359;29;20570;-56
2023/03/26 05:03:40;;;;;;;4.00;1.10;;;5.90;99.90;;;;;;4928453;29;20273;-56
2023/03/26 05:06:13;;;;;;;4.17;1.30;;;5.90;99.90;;;;;;4936831;29;20224;-57
2023/03/26 05:08:42;;;;;;;6.27;1.80;;;5.80;99.90;;;;;;4937120;29;20710;-56
2023/03/26 05:11:18;;;;;;;5.70;1.40;;;5.70;99.90;;;;;;4936682;29;20302;-57
2023/03/26 05:13:46;;;;;;;4.07;1.13;;;5.80;99.90;;;;;;4937783;29;20310;-57
2023/03/26 05:16:14;;;;;;;5.20;1.50;;;5.80;99.90;;;;;;4936656;29;20231;-56
2023/03/26 05:18:52;;;;;;;7.87;1.60;;;5.80;99.90;;;;;;4936324;29;20231;-57
2023/03/26 05:21:22;;;;;;;7.67;1.40;;;5.80;99.90;;;;;;4936463;29;20282;-57
2023/03/26 05:23:50;;;;;;;10.10;1.73;;;5.70;99.90;;;;;;4936312;29;20229;-57
2023/03/26 05:26:20;;;;;;;7.40;1.60;;;5.80;99.90;;;;;;4936453;29;20314;-57
2023/03/26 05:28:48;;;;;;;8.23;1.57;;;5.70;99.90;;;;;;4935909;29;20703;-56
2023/03/26 05:31:26;;;;;;;4.27;1.30;;;5.70;99.90;;;;;;4950851;29;20247;-56
2023/03/26 05:33:59;;;;;;;7.77;1.60;;;5.80;99.90;;;;;;4928197;29;20699;-56
2023/03/26 05:36:28;;;;;;;6.17;1.43;;;6.10;99.90;;;;;;4935863;29;20335;-56
2023/03/26 05:39:25;;;;;;;4.80;1.57;;;6.00;99.90;;;;;;4910363;29;20326;-57
2023/03/26 05:42:16;;;;;;;8.77;1.63;;;6.20;99.90;;;;;;4937275;29;20612;-57
2023/03/26 05:45:03;;;;;;;5.43;1.43;;;6.20;99.90;;;;;;4936088;29;20260;-57
2023/03/26 05:47:33;;;;;;;5.83;1.30;;;6.20;99.90;;;;;;4935976;29;20599;-57
2023/03/26 05:50:04;;;;;;;7.40;1.50;;;6.10;99.90;;;;;;4928747;29;20288;-57
2023/03/26 05:52:34;;;;;;;7.53;1.37;;;6.10;99.90;;;;;;4916798;29;20328;-57
2023/03/26 05:55:44;;;;;;;9.67;1.70;;;6.10;99.90;;;;;;4867310;29;20270;-57
2023/03/26 05:58:33;;;;;;;9.03;1.47;;;6.20;99.90;;;;;;4878287;29;20228;-56
2023/03/26 06:01:37;;;;;;;8.77;1.97;;;6.30;99.90;;;;;;4866753;29;20725;-57
2023/03/26 06:04:27;;;;;;;5.63;1.80;;;6.20;99.90;;;;;;4899133;29;20304;-55
2023/03/26 06:07:23;;;;;;;7.67;1.83;;;6.20;99.90;;;;;;4905502;29;20632;-57
2023/03/26 06:10:12;;;;;;;13.77;2.20;;;6.20;99.90;;;;;;4923214;29;20277;-56
2023/03/26 06:12:46;;;;;;;12.23;2.67;;;6.20;99.90;;;;;;4927031;29;20227;-56
2023/03/26 06:15:14;;;;;;;7.30;1.67;;;6.20;99.90;;;;;;4926074;29;20223;-56
2023/03/26 06:17:47;;;;;;;8.73;2.13;;;6.30;99.90;;;;;;4933458;29;20231;-57
2023/03/26 06:20:44;;;;;;;7.73;1.83;;;6.30;99.90;;;;;;4912549;29;20233;-57
2023/03/26 06:23:25;;;;;;;14.97;2.60;;;6.30;99.90;;;;;;4916486;29;20248;-57
2023/03/26 06:26:06;;;;;;;7.77;1.90;;;6.30;99.90;;;;;;4916682;29;20414;-57
2023/03/26 06:28:48;;;;;;;14.20;2.00;;;6.20;99.90;;;;;;4916175;29;20315;-57
2023/03/26 06:31:40;;;;;;;7.90;2.00;;;6.20;99.90;;;;;;4903201;29;20244;-57
2023/03/26 06:34:15;;;;;;;13.20;2.20;;;6.20;99.90;;;;;;4926861;29;20220;-56
2023/03/26 06:36:44;;;;;;;8.67;1.60;;;6.30;99.90;;;;;;4920188;29;20240;-57
2023/03/26 06:39:13;;;;;;;13.57;2.50;;;6.30;99.90;;;;;;4924905;29;20666;-56
2023/03/26 06:41:51;;;;;;;8.57;1.77;;;6.30;99.90;;;;;;4926153;29;20592;-56
2023/03/26 06:44:36;;;;;;;8.30;2.00;;;6.30;99.90;;;;;;4923363;29;20227;-57
2023/03/26 06:47:22;;;;;;;10.50;2.60;;;6.30;99.90;;;;;;4927782;29;20242;-57
2023/03/26 06:49:50;;;;;;;10.03;2.13;;;6.20;99.90;;;;;;4929315;29;20228;-57
2023/03/26 06:52:35;;;;;;;13.43;2.23;;;6.20;99.90;;;;;;4932803;29;20220;-57
2023/03/26 06:55:23;;;;;;;9.13;1.90;;;6.20;99.90;;;;;;4949243;28;20250;-56
2023/03/26 06:58:04;;;;;;;10.90;2.40;;;6.20;99.90;;;;;;4928124;29;20342;-57
2023/03/26 07:00:38;;;;;;;10.30;2.10;;;6.30;99.90;;;;;;4925271;29;20236;-57
2023/03/26 07:03:25;;;;;;;13.93;2.27;;;6.30;99.90;;;;;;4928777;29;20326;-56
2023/03/26 07:06:11;;;;;;;13.70;2.83;;;6.30;99.90;;;;;;4928613;29;20750;-57
2023/03/26 07:08:57;;;;;;;8.57;2.53;;;6.40;99.90;;;;;;4927970;29;20738;-57
2023/03/26 07:11:45;;;;;;;15.00;2.30;;;6.40;99.90;;;;;;4927377;29;20251;-57
2023/03/26 07:14:45;;;;;;;11.40;2.10;;;6.50;99.90;;;;;;4927125;29;20676;-56
2023/03/26 07:17:49;;;;;;;13.57;2.10;;;6.60;99.90;;;;;;4858365;29;20292;-56
2023/03/26 07:20:27;;;;;;;13.13;2.80;;;6.70;99.90;;;;;;4914445;29;20250;-55
2023/03/26 07:22:56;;;;;;;13.80;2.40;;;6.70;99.90;;;;;;4934117;29;20224;-56
2023/03/26 07:25:38;;;;;;;12.43;2.77;;;6.70;99.90;;;;;;4940897;29;20242;-56
2023/03/26 07:28:25;;;;;;;15.50;2.80;;;6.70;99.90;;;;;;4926692;29;20236;-56
2023/03/26 07:31:25;;;;;;;15.50;2.27;;;6.80;99.90;;;;;;4925609;29;20291;-56
2023/03/26 07:34:26;;;;;;;10.37;2.53;;;6.80;99.90;;;;;;4928543;29;20741;-56
2023/03/26 07:37:20;;;;;;;15.90;2.83;;;6.90;99.90;;;;;;4923263;29;20323;-57
2023/03/26 07:40:17;;;;;;;12.47;2.67;;;6.80;99.90;;;;;;4926412;29;20228;-56
2023/03/26 07:43:19;;;;;;;15.93;2.60;;;6.80;99.90;;;;;;4924738;29;20228;-56
2023/03/26 07:46:10;;;;;;;14.67;2.50;;;6.80;99.90;;;;;;4927526;29;20624;-56
2023/03/26 07:49:00;;;;;;;12.90;2.70;;;6.90;99.90;;;;;;4937274;29;20271;-56
2023/03/26 07:51:47;;;;;;;19.50;3.00;;;7.10;99.90;;;;;;4933962;29;20364;-56
2023/03/26 07:54:26;;;;;;;15.50;2.80;;;7.20;99.90;;;;;;4937552;29;20259;-56
2023/03/26 07:57:45;;;;;;;16.17;3.90;;;7.20;99.90;;;;;;4933538;29;20233;-56
2023/03/26 08:00:26;;;;;;;21.60;3.20;;;7.20;99.90;;;;;;4953472;28;20311;-56
2023/03/26 08:03:24;;;;;;;18.50;3.90;;;7.10;99.90;;;;;;4934398;29;20267;-56
2023/03/26 08:06:32;;;;;;;16.70;2.90;;;7.10;99.90;;;;;;4932359;29;20336;-56
2023/03/26 08:09:16;;;;;;;14.83;2.50;;;7.10;99.90;;;;;;4935925;29;20251;-56
2023/03/26 08:12:23;;;;;;;13.13;3.53;;;7.00;99.90;;;;;;4956283;29;20231;-56
2023/03/26 08:14:58;;;;;;;11.63;2.57;;;7.00;99.90;;;;;;4933234;29;20227;-56
2023/03/26 08:17:32;;;;;;;11.67;2.20;;;7.10;99.90;;;;;;4931899;29;20654;-55
2023/03/26 08:20:12;;;;;;;13.73;2.53;;;7.30;99.90;;;;;;4932056;29;20263;-56
2023/03/26 08:22:44;;;;;;;12.77;2.37;;;7.40;99.90;;;;;;4932604;29;20234;-56
2023/03/26 08:25:22;;;;;;;13.90;3.17;;;7.60;99.90;;;;;;4932490;29;20699;-56
2023/03/26 08:28:02;;;;;;;16.60;2.73;;;7.60;99.90;;;;;;4932450;29;20238;-56
2023/03/26 08:30:31;;;;;;;12.53;2.47;;;7.80;99.90;;;;;;4931758;29;20247;-56
2023/03/26 08:33:05;;;;;;;9.80;2.50;;;7.80;99.90;;;;;;4934221;29;20229;-56
2023/03/26 08:35:34;;;;;;;13.73;2.53;;;7.80;99.90;;;;;;4933114;29;20252;-56
2023/03/26 08:38:02;;;;;;;19.10;3.53;;;7.80;99.90;;;;;;4930855;29;20264;-56
2023/03/26 08:40:56;;;;;;;10.97;2.73;;;7.80;99.90;;;;;;4935714;29;20238;-56
2023/03/26 08:44:02;;;;;;;10.70;2.57;;;7.60;99.90;;;;;;4934133;29;20220;-56
2023/03/26 08:47:02;;;;;;;13.73;2.47;;;7.50;99.90;;;;;;4934380;29;20240;-56
2023/03/26 08:49:52;;;;;;;15.00;2.53;;;7.50;99.90;;;;;;4921852;29;20591;-57
2023/03/26 08:52:55;;;;;;;14.13;2.40;;;7.80;99.90;;;;;;4922185;29;20242;-56
2023/03/26 08:55:41;;;;;;;14.03;2.50;;;7.90;99.90;;;;;;4921965;29;20228;-56
2023/03/26 08:58:49;;;;;;;16.63;2.80;;;7.90;99.90;;;;;;4924503;29;20228;-55
2023/03/26 09:01:38;;;;;;;12.20;2.83;;;7.80;99.90;;;;;;4916079;29;20593;-56
2023/03/26 09:04:34;;;;;;;14.67;2.90;;;7.70;99.90;;;;;;4926991;29;20240;-56
2023/03/26 09:07:36;;;;;;;13.30;2.57;;;7.70;99.90;;;;;;4936687;29;20246;-56
2023/03/26 09:10:46;;;;;;;10.87;2.50;;;7.90;99.90;;;;;;4937012;29;20234;-56
2023/03/26 09:14:11;;;;;;;12.50;2.27;;;8.20;99.90;;;;;;4925847;29;20235;-56
2023/03/26 09:17:22;;;;;;;14.77;2.83;;;8.50;99.90;;;;;;4937761;29;20220;-56
2023/03/26 09:20:20;;;;;;;13.23;2.83;;;8.50;99.90;;;;;;4928535;29;20256;-56
2023/03/26 09:23:19;;;;;;;10.67;2.60;;;8.50;99.90;;;;;;4931737;29;20601;-56
2023/03/26 09:26:07;;;;;;;17.67;2.67;;;8.50;99.90;;;;;;4931754;29;20251;-56
2023/03/26 09:29:13;;;;;;;13.80;2.43;;;8.60;99.90;;;;;;4935235;29;20240;-56
2023/03/26 09:32:09;;;;;;;13.07;3.03;;;8.60;99.90;;;;;;4934944;29;20600;-56
2023/03/26 09:34:53;;;;;;;18.00;2.77;;;8.60;99.90;;;;;;4910359;29;20715;-56
2023/03/26 09:37:26;;;;;;;12.67;2.30;;;8.70;99.90;;;;;;4924104;29;20771;-56
2023/03/26 09:40:13;;;;;;;12.20;2.40;;;8.80;99.90;;;;;;4928572;29;20602;-56
2023/03/26 09:42:45;;;;;;;11.57;2.33;;;9.20;99.90;;;;;;4918678;29;20680;-56
2023/03/26 09:45:35;;;;;;;13.90;3.17;;;9.30;99.90;;;;;;4918466;29;20703;-56
2023/03/26 09:48:29;;;;;;;14.20;2.53;;;9.40;99.90;;;;;;4916878;29;20241;-56
2023/03/26 09:51:11;;;;;;;10.97;2.43;;;9.40;99.90;;;;;;4926294;29;20255;-55
2023/03/26 09:54:00;;;;;;;12.30;2.73;;;9.40;99.90;;;;;;4924570;29;20240;-55
2023/03/26 09:56:42;;;;;;;13.83;2.50;;;9.30;99.90;;;;;;4936121;29;20260;-56
2023/03/26 09:59:29;;;;;;;11.33;2.73;;;9.00;99.90;;;;;;4937405;29;20256;-56
2023/03/26 10:02:04;;;;;;;14.83;2.47;;;8.80;99.90;;;;;;4950673;29;20591;-56
2023/03/26 10:05:04;;;;;;;14.67;3.10;;;8.60;99.90;;;;;;4930234;29;20224;-56
2023/03/26 10:07:49;;;;;;;11.20;2.57;;;8.40;99.90;;;;;;4916984;29;20228;-56
2023/03/26 10:10:25;;;;;;;16.27;2.70;;;8.40;99.90;;;;;;4927644;29;20286;-56
2023/03/26 10:13:02;;;;;;;11.87;2.20;;;8.50;99.90;;;;;;4926293;29;20224;-56
2023/03/26 10:15:57;;;;;;;12.27;2.40;;;9.00;99.90;;;;;;4917722;29;20259;-56
2023/03/26 10:18:36;;;;;;;10.93;2.80;;;9.80;99.90;;;;;;4923830;29;20232;-55
2023/03/26 10:21:11;;;;;;;13.10;2.27;;;10.60;99.90;;;;;;4926346;29;20232;-56
2023/03/26 10:23:57;;;;;;;11.23;2.30;;;11.10;99.90;;;;;;4926103;29;20238;-56
2023/03/26 10:26:41;;;;;;;11.47;2.50;;;11.20;99.90;;;;;;4936796;29;20712;-56
2023/03/26 10:29:57;;;;;;;12.87;2.70;;;10.80;99.90;;;;;;4936486;29;20255;-56
2023/03/26 10:32:33;;;;;;;14.87;2.33;;;10.30;99.90;;;;;;4923905;29;20236;-56
2023/03/26 10:35:21;;;;;;;11.27;2.40;;;10.00;99.90;;;;;;4933925;29;20632;-56
2023/03/26 10:38:01;;;;;;;10.10;2.20;;;10.00;99.90;;;;;;4929126;29;20228;-56
2023/03/26 10:40:34;;;;;;;9.77;2.33;;;9.90;99.90;;;;;;4917167;29;20328;-56
2023/03/26 10:43:27;;;;;;;10.47;2.10;;;9.90;99.90;;;;;;4917587;29;20727;-56
2023/03/26 10:46:22;;;;;;;13.80;2.27;;;9.80;99.90;;;;;;4912929;29;20229;-56
2023/03/26 10:49:14;;;;;;;14.87;2.37;;;9.80;99.90;;;;;;4892610;29;20279;-57
2023/03/26 10:51:52;;;;;;;13.37;2.07;;;9.70;99.90;;;;;;4927436;29;20232;-56
2023/03/26 10:54:30;;;;;;;14.37;2.63;;;9.60;99.90;;;;;;4943775;28;20256;-56
2023/03/26 10:57:00;;;;;;;9.77;2.10;;;9.60;99.90;;;;;;4928583;29;20252;-56
2023/03/26 10:59:29;;;;;;;12.33;2.53;;;10.20;99.90;;;;;;4931062;29;20229;-56
2023/03/26 11:02:14;;;;;;;14.23;2.27;;;10.40;99.90;;;;;;4929062;29;20722;-56
2023/03/26 11:04:50;;;;;;;10.93;2.27;;;10.30;99.90;;;;;;4928124;29;20243;-56
2023/03/26 11:07:25;;;;;;;11.33;2.33;;;10.20;99.90;;;;;;4923308;29;20235;-56
2023/03/26 11:09:58;;;;;;;13.03;2.13;;;10.00;99.90;;;;;;4928899;29;20315;-56
2023/03/26 11:12:33;;;;;;;9.00;2.13;;;9.90;99.90;;;;;;4935866;29;20233;-55
2023/03/26 11:15:12;;;;;;;9.77;2.23;;;9.70;99.90;;;;;;4935694;29;20248;-56
2023/03/26 11:17:48;;;;;;;11.93;2.20;;;9.50;99.90;;;;;;4935658;29;20703;-57
2023/03/26 11:20:33;;;;;;;11.60;2.30;;;9.50;99.90;;;;;;4930248;29;20312;-56
2023/03/26 11:23:22;;;;;;;9.10;2.33;;;9.40;99.90;;;;;;4933274;29;20280;-56
2023/03/26 11:26:02;;;;;;;14.43;2.27;;;9.30;99.90;;;;;;4935352;29;20239;-57
2023/03/26 11:29:13;;;;;;;12.37;2.43;;;9.20;99.90;;;;;;4943154;29;20243;-56
2023/03/26 11:32:06;;;;;;;14.00;3.30;;;9.30;99.90;;;;;;4921866;29;20323;-57
2023/03/26 11:34:38;;;;;;;9.57;1.93;;;10.00;99.90;;;;;;4924330;29;20244;-56
2023/03/26 11:37:16;;;;;;;8.83;2.40;;;10.50;99.90;;;;;;4916813;29;20588;-56
2023/03/26 11:39:49;;;;;;;10.53;2.73;;;11.20;99.90;;;;;;4916348;29;20680;-55
2023/03/26 11:42:21;;;;;;;11.57;2.67;;;11.60;99.90;;;;;;4925868;29;20593;-55
2023/03/26 11:44:54;;;;;;;9.10;2.03;;;11.90;99.90;;;;;;4935684;29;20700;-55
2023/03/26 11:47:28;;;;;;;8.33;2.30;;;12.20;99.90;;;;;;4935756;29;20323;-56
2023/03/26 11:49:58;;;;;;;15.03;2.53;;;11.90;99.90;;;;;;4933030;29;20236;-55
2023/03/26 11:52:28;;;;;;;13.23;2.57;;;11.30;99.90;;;;;;4930447;29;20233;-55
2023/03/26 11:54:57;;;;;;;11.60;2.23;;;10.70;99.90;;;;;;4935606;29;20720;-56
2023/03/26 11:57:29;;;;;;;10.50;2.30;;;10.10;99.90;;;;;;4935270;29;20233;-55
2023/03/26 12:00:02;;;;;;;9.27;2.13;;;9.70;99.90;;;;;;4935258;29;20236;-54
2023/03/26 12:02:40;;;;;;;8.13;2.10;;;9.40;99.90;;;;;;4931722;29;20733;-56
2023/03/26 12:05:16;;;;;;;11.73;2.30;;;9.30;99.90;;;;;;4928225;29;20744;-56
2023/03/26 12:07:55;;;;;;;9.40;1.90;;;9.40;99.90;;;;;;4935291;29;20235;-56
2023/03/26 12:10:27;;;;;;;13.57;2.20;;;9.60;99.90;;;;;;4935168;29;20246;-56
2023/03/26 12:12:58;;;;;;;10.30;1.90;;;9.70;99.90;;;;;;4934004;29;20707;-56
2023/03/26 12:15:29;;;;;;;9.63;2.03;;;9.70;99.90;;;;;;4935187;29;20591;-54
2023/03/26 12:17:59;;;;;;;11.90;2.10;;;9.60;99.90;;;;;;4935370;29;20228;-56
2023/03/26 12:20:44;;;;;;;12.17;2.43;;;9.50;99.90;;;;;;4927382;29;20620;-55
2023/03/26 12:23:35;;;;;;;12.93;2.00;;;9.30;99.90;;;;;;4916166;29;20235;-56
2023/03/26 12:26:14;;;;;;;8.10;2.20;;;9.20;99.90;;;;;;4916107;29;20228;-56
2023/03/26 12:28:48;;;;;;;14.03;2.47;;;9.30;99.90;;;;;;4916228;29;20239;-55
2023/03/26 12:31:18;;;;;;;9.17;1.90;;;9.30;99.90;;;;;;4917584;29;20708;-56
2023/03/26 12:34:04;;;;;;;10.43;2.40;;;9.30;99.90;;;;;;4926695;29;21060;-56
2023/03/26 12:36:34;;;;;;;11.50;2.60;;;9.30;99.90;;;;;;4938438;29;20228;-56
2023/03/26 12:39:26;;;;;;;5.87;2.07;;;9.30;99.90;;;;;;4937341;29;20271;-56
2023/03/26 12:42:26;;;;;;;8.03;1.80;;;9.40;99.90;;;;;;4938497;29;20232;-56
2023/03/26 12:45:15;;;;;;;12.97;2.47;;;9.40;99.90;;;;;;4938437;29;20236;-56
2023/03/26 12:47:43;;;;;;;10.87;2.27;;;9.40;99.90;;;;;;4938211;29;20242;-56
2023/03/26 12:50:42;;;;;;;10.83;2.07;;;9.50;99.90;;;;;;4930232;29;20236;-56
2023/03/26 12:53:37;;;;;;;10.60;1.90;;;9.60;99.90;;;;;;4921789;29;20240;-55
2023/03/26 12:56:18;;;;;;;12.43;2.30;;;9.60;99.90;;;;;;4919516;29;20601;-56
2023/03/26 12:59:02;;;;;;;17.80;3.80;;;9.50;99.90;;;;;;4919120;29;20241;-56
2023/03/26 13:01:42;;;;;;;10.03;2.20;;;9.50;99.90;;;;;;4922340;29;20232;-56
2023/03/26 13:04:22;;;;;;;10.97;2.33;;;9.50;99.90;;;;;;4929800;29;20259;-56
2023/03/26 13:06:56;;;;;;;12.50;1.90;;;9.40;99.90;;;;;;4938143;29;20731;-56
2023/03/26 13:09:42;;;;;;;12.33;2.17;;;9.30;99.90;;;;;;4938132;29;20271;-56
2023/03/26 13:12:22;;;;;;;7.63;2.27;;;9.30;99.90;;;;;;4937044;29;20236;-56
2023/03/26 13:15:00;;;;;;;13.67;2.20;;;9.30;99.90;;;;;;4938033;29;20235;-56
2023/03/26 13:17:34;;;;;;;12.97;2.13;;;9.40;99.90;;;;;;4938069;29;20220;-56
2023/03/26 13:20:11;;;;;;;11.20;2.13;;;9.50;99.90;;;;;;4930080;29;20799;-56
2023/03/26 13:22:49;;;;;;;10.90;2.10;;;9.60;99.90;;;;;;4934764;29;20706;-56
2023/03/26 13:25:28;;;;;;;10.33;2.07;;;9.60;99.90;;;;;;4952591;29;20721;-56
2023/03/26 13:28:13;;;;;;;7.70;1.97;;;9.50;99.90;;;;;;4937723;29;20231;-56
2023/03/26 13:30:48;;;;;;;10.73;1.97;;;9.40;99.90;;;;;;4937478;29;20733;-56
2023/03/26 13:33:31;;;;;;;11.67;1.90;;;9.30;99.90;;;;;;4936107;29;20231;-56
2023/03/26 13:36:05;;;;;;;15.63;2.50;;;9.20;99.90;;;;;;4926534;29;20607;-56
2023/03/26 13:39:02;;;;;;;6.47;2.47;;;9.10;99.90;;;;;;4937451;29;20684;-56
2023/03/26 13:41:42;;;;;;;9.77;2.23;;;9.00;99.90;;;;;;4937402;29;20228;-56
2023/03/26 13:44:19;;;;;;;8.70;1.70;;;9.00;99.90;;;;;;4937380;29;20231;-55
2023/03/26 13:46:52;;;;;;;11.07;2.30;;;9.00;99.90;;;;;;4937144;29;20340;-56
2023/03/26 13:49:29;;;;;;;19.13;2.73;;;8.90;99.90;;;;;;4931963;29;20233;-56
2023/03/26 13:52:00;;;;;;;7.90;2.30;;;8.90;99.90;;;;;;4926062;29;20244;-56
2023/03/26 13:54:32;;;;;;;12.67;2.23;;;8.80;99.90;;;;;;4918145;29;20225;-55
2023/03/26 13:57:07;;;;;;;11.53;2.20;;;8.90;99.90;;;;;;4918430;29;20328;-56